Time;durP1;ratioP1;P1;durP2;ratioP2;P2;SDS_P1;SDS_P2;PMS_P1;PMS_P2;Temp;Humidity;BMP_temperature;BMP_pressure;BME280_temperature;BME280_humidity;BME280_pressure;Samples;Min_cycle;Max_cycle;Signal;HPM_P1;HPM_P2
2021/06/03 00:01:22;;;;;;;12.63;3.22;;;;;;;11.10;50.74;100008.31;5025511;28;20077;-62
2021/06/03 00:03:48;;;;;;;10.55;3.00;;;;;;;11.09;50.79;100014.03;5018370;28;20519;-61
2021/06/03 00:06:15;;;;;;;8.95;2.92;;;;;;;11.04;50.84;100001.16;5014603;28;20044;-62
2021/06/03 00:08:43;;;;;;;7.68;2.60;;;;;;;10.95;51.08;99998.16;5039815;28;20046;-63
2021/06/03 00:11:11;;;;;;;9.50;3.20;;;;;;;10.86;51.51;99992.41;5023671;28;20053;-63
2021/06/03 00:13:40;;;;;;;8.52;3.08;;;;;;;10.85;51.62;99996.22;5027607;28;20053;-64
2021/06/03 00:16:08;;;;;;;8.98;2.90;;;;;;;10.82;51.70;100006.88;5028520;28;20046;-63
2021/06/03 00:18:34;;;;;;;9.23;2.83;;;;;;;10.77;51.71;99994.84;5025583;28;20136;-63
2021/06/03 00:21:00;;;;;;;11.37;3.00;;;;;;;10.71;51.90;100003.31;5028553;28;20137;-62
2021/06/03 00:23:27;;;;;;;10.05;3.40;;;;;;;10.74;51.72;99995.41;5028395;28;20312;-63
2021/06/03 00:25:54;;;;;;;13.52;3.25;;;;;;;10.75;51.69;100007.16;5042722;28;20045;-63
2021/06/03 00:28:31;;;;;;;14.45;3.10;;;;;;;10.73;51.79;100009.34;5027559;28;20160;-64
2021/06/03 00:31:07;;;;;;;10.98;2.70;;;;;;;10.58;52.04;99993.75;5028090;28;20045;-63
2021/06/03 00:33:34;;;;;;;9.32;2.80;;;;;;;10.64;52.16;100009.88;5027344;28;20046;-63
2021/06/03 00:36:05;;;;;;;15.20;3.20;;;;;;;10.63;52.20;100010.97;5029193;28;20111;-62
2021/06/03 00:38:31;;;;;;;12.02;2.65;;;;;;;10.57;52.52;100006.56;5027336;28;20046;-62
2021/06/03 00:40:58;;;;;;;6.13;2.50;;;;;;;10.59;52.29;100000.84;5028865;28;20041;-63
2021/06/03 00:43:25;;;;;;;;;;;;;;;10.60;52.08;100008.75;5027429;28;20055;-61
2021/06/03 00:45:51;;;;;;;10.52;2.60;;;;;;;10.56;52.06;100010.41;5042733;28;19939;-61
2021/06/03 00:48:17;;;;;;;8.48;2.63;;;;;;;10.57;51.98;99998.38;5036929;28;20052;-63
2021/06/03 00:50:46;;;;;;;6.95;2.53;;;;;;;10.58;52.04;100000.00;5028231;28;20506;-63
2021/06/03 00:53:13;;;;;;;6.90;2.55;;;;;;;10.61;51.64;99996.75;5028469;28;20061;-62
2021/06/03 00:55:45;;;;;;;8.77;2.70;;;;;;;10.60;52.03;99994.28;5036317;28;20072;-62
2021/06/03 00:58:16;;;;;;;8.48;2.70;;;;;;;10.53;51.67;99977.31;5043697;28;20429;-61
2021/06/03 01:00:43;;;;;;;12.88;3.10;;;;;;;10.60;51.50;99997.81;5025223;28;20502;-62
2021/06/03 01:03:11;;;;;;;;;;;;;;;10.65;51.29;99994.28;5026466;28;20038;-62
2021/06/03 01:05:40;;;;;;;12.85;2.90;;;;;;;10.59;51.58;99987.97;5026524;28;20313;-63
2021/06/03 01:08:11;;;;;;;8.80;2.60;;;;;;;10.62;51.31;99992.09;5027167;28;20056;-62
2021/06/03 01:10:43;;;;;;;11.80;2.50;;;;;;;10.66;51.40;99995.13;5026215;28;20080;-62
2021/06/03 01:13:17;;;;;;;13.95;2.50;;;;;;;10.65;51.06;99991.56;5024815;28;20415;-62
2021/06/03 01:15:47;;;;;;;11.80;2.58;;;;;;;10.65;51.35;99999.75;5019601;28;20042;-62
2021/06/03 01:18:15;;;;;;;9.27;2.75;;;;;;;10.68;51.34;99999.22;5029077;28;20069;-61
2021/06/03 01:20:44;;;;;;;11.05;2.53;;;;;;;10.71;51.22;99997.84;5036353;28;20060;-63
2021/06/03 01:23:14;;;;;;;15.15;3.25;;;;;;;10.55;51.30;99981.41;5026411;28;20053;-64
2021/06/03 01:25:44;;;;;;;9.52;2.67;;;;;;;10.59;51.60;99998.91;5027013;28;20064;-63
2021/06/03 01:28:11;;;;;;;7.57;2.42;;;;;;;10.57;51.84;99995.63;5019841;28;20410;-63
2021/06/03 01:30:41;;;;;;;11.15;2.80;;;;;;;10.58;51.94;99996.47;5026326;28;20528;-61
2021/06/03 01:33:11;;;;;;;11.93;2.88;;;;;;;10.56;51.96;99999.47;5025758;28;20041;-62
2021/06/03 01:35:41;;;;;;;7.63;2.60;;;;;;;10.58;51.76;100001.94;5025831;28;20072;-61
2021/06/03 01:38:12;;;;;;;11.80;2.78;;;;;;;10.58;52.02;99997.28;5028414;28;20048;-63
2021/06/03 01:40:44;;;;;;;9.38;2.72;;;;;;;10.62;52.17;100008.50;5026425;28;20053;-63
2021/06/03 01:43:11;;;;;;;10.02;2.72;;;;;;;10.72;51.63;100008.53;5024809;28;20064;-62
2021/06/03 01:45:39;;;;;;;21.35;3.83;;;;;;;10.81;51.61;100018.94;5025501;28;20049;-62
2021/06/03 01:48:07;;;;;;;10.98;2.95;;;;;;;10.83;51.63;100016.75;5036237;28;20128;-62
2021/06/03 01:50:34;;;;;;;8.50;2.90;;;;;;;10.75;51.76;100015.34;5025500;28;20049;-64
2021/06/03 01:53:02;;;;;;;13.70;3.13;;;;;;;10.67;51.75;100029.56;5018686;28;20053;-62
2021/06/03 01:55:29;;;;;;;7.88;2.55;;;;;;;10.59;52.15;100019.97;5026747;28;20540;-63
2021/06/03 01:57:59;;;;;;;17.98;4.18;;;;;;;10.62;51.98;100030.38;5024699;28;20041;-63
2021/06/03 02:00:36;;;;;;;12.18;2.70;;;;;;;10.62;52.09;100031.22;5041595;28;20128;-63
2021/06/03 02:03:03;;;;;;;11.75;2.88;;;;;;;10.58;51.93;100019.16;5018786;28;20043;-63
2021/06/03 02:05:34;;;;;;;11.02;2.85;;;;;;;10.58;51.66;100029.28;5034193;28;20045;-62
2021/06/03 02:08:00;;;;;;;10.32;3.05;;;;;;;10.58;52.03;100021.88;5022889;28;20056;-62
2021/06/03 02:10:31;;;;;;;12.48;3.20;;;;;;;10.57;51.79;100019.44;5022725;28;20041;-63
2021/06/03 02:13:05;;;;;;;9.85;3.05;;;;;;;10.59;52.21;100019.97;5019175;28;20052;-62
2021/06/03 02:15:34;;;;;;;12.98;2.65;;;;;;;10.58;51.89;100013.69;5026147;28;20057;-63
2021/06/03 02:18:05;;;;;;;9.85;2.50;;;;;;;10.55;52.55;100013.41;5018732;28;20045;-62
2021/06/03 02:20:37;;;;;;;14.02;3.08;;;;;;;10.60;52.02;100014.22;5025105;28;20501;-62
2021/06/03 02:23:11;;;;;;;10.65;3.30;;;;;;;10.67;51.92;100008.50;5024843;28;20041;-62
2021/06/03 02:25:38;;;;;;;12.48;3.38;;;;;;;10.84;51.55;100015.63;5016269;28;20538;-61
2021/06/03 02:28:07;;;;;;;11.68;2.97;;;;;;;10.94;51.63;100014.84;5042726;28;20136;-63
2021/06/03 02:30:34;;;;;;;9.48;2.88;;;;;;;11.04;51.05;100023.91;5024483;28;20564;-62
2021/06/03 02:33:02;;;;;;;13.83;2.90;;;;;;;11.17;50.74;100022.53;5026019;28;20076;-62
2021/06/03 02:35:29;;;;;;;12.32;2.83;;;;;;;11.24;50.61;100027.72;5026069;28;20312;-62
2021/06/03 02:37:56;;;;;;;12.93;3.60;;;;;;;11.31;50.49;100022.78;5026535;28;20045;-62
2021/06/03 02:40:25;;;;;;;10.15;2.88;;;;;;;11.34;50.34;100019.53;5023601;28;20048;-63
2021/06/03 02:42:52;;;;;;;8.82;2.55;;;;;;;11.25;50.32;100020.34;5035027;28;20053;-62
2021/06/03 02:45:23;;;;;;;14.27;2.83;;;;;;;11.29;50.17;100011.28;5022887;28;20056;-62
2021/06/03 02:47:51;;;;;;;11.55;3.05;;;;;;;11.37;50.39;100020.06;5041833;28;20049;-62
2021/06/03 02:50:21;;;;;;;11.27;2.90;;;;;;;11.42;50.13;100017.31;5026568;28;20045;-61
2021/06/03 02:52:48;;;;;;;15.57;3.30;;;;;;;11.31;50.44;100013.75;5025635;28;20068;-61
2021/06/03 02:55:18;;;;;;;12.18;2.97;;;;;;;11.40;50.05;100011.28;5041746;28;20141;-60
2021/06/03 02:57:48;;;;;;;12.82;2.90;;;;;;;11.46;50.14;100013.75;5040758;28;20041;-61
2021/06/03 03:00:19;;;;;;;16.23;4.15;;;;;;;11.40;49.85;99986.66;5026674;28;20453;-62
2021/06/03 03:02:47;;;;;;;9.88;3.17;;;;;;;11.41;49.50;100010.19;5034663;28;20378;-62
2021/06/03 03:05:14;;;;;;;10.70;3.17;;;;;;;11.45;49.95;100009.38;5042466;28;20052;-62
2021/06/03 03:07:43;;;;;;;10.60;2.80;;;;;;;11.49;49.57;100013.19;5023124;28;20131;-62
2021/06/03 03:10:12;;;;;;;14.68;3.38;;;;;;;11.61;49.54;100004.69;5035182;28;20148;-62
2021/06/03 03:12:39;;;;;;;14.25;3.40;;;;;;;11.66;49.42;100011.28;5023793;28;20050;-62
2021/06/03 03:15:08;;;;;;;13.40;3.10;;;;;;;11.66;49.38;100005.78;5025568;28;20069;-61
2021/06/03 03:17:35;;;;;;;11.00;2.97;;;;;;;11.68;48.98;100006.34;5025559;28;20065;-62
2021/06/03 03:20:04;;;;;;;12.93;3.00;;;;;;;11.73;49.30;100004.41;5026404;28;20132;-62
2021/06/03 03:22:31;;;;;;;16.25;2.42;;;;;;;11.75;49.37;100006.84;5025135;28;20502;-62
2021/06/03 03:24:58;;;;;;;10.30;3.00;;;;;;;11.72;49.46;99999.19;5034776;28;20604;-62
2021/06/03 03:27:25;;;;;;;8.32;2.45;;;;;;;11.81;49.24;100000.28;5039715;28;20304;-62
2021/06/03 03:29:51;;;;;;;11.68;2.47;;;;;;;11.91;48.92;100005.72;5036216;28;20506;-62
2021/06/03 03:32:17;;;;;;;11.52;3.00;;;;;;;11.76;49.10;100000.28;5029366;28;20471;-63
2021/06/03 03:34:44;;;;;;;11.75;2.95;;;;;;;11.85;49.02;100003.25;5020751;28;20524;-64
2021/06/03 03:37:12;;;;;;;9.68;2.50;;;;;;;11.90;48.68;100001.31;5043964;28;20045;-62
2021/06/03 03:39:38;;;;;;;10.90;2.60;;;;;;;11.98;48.07;100001.88;5039805;28;20069;-64
2021/06/03 03:42:05;;;;;;;14.05;2.60;;;;;;;11.99;47.94;100004.31;5028559;28;20111;-64
2021/06/03 03:44:31;;;;;;;9.27;2.47;;;;;;;12.07;47.38;99989.25;5036896;28;20695;-64
2021/06/03 03:46:58;;;;;;;8.27;2.92;;;;;;;12.15;47.88;99998.81;5028080;28;20048;-63
2021/06/03 03:49:25;;;;;;;21.90;3.77;;;;;;;11.99;48.65;100000.75;5027882;28;20374;-64
2021/06/03 03:51:54;;;;;;;15.52;2.80;;;;;;;12.07;49.17;100005.69;5027328;28;20040;-62
2021/06/03 03:54:23;;;;;;;14.93;3.05;;;;;;;12.13;48.93;100009.22;5026345;28;20046;-64
2021/06/03 03:56:49;;;;;;;10.38;3.13;;;;;;;12.15;48.45;100002.38;5039706;28;20033;-62
2021/06/03 03:59:15;;;;;;;9.20;2.53;;;;;;;12.29;47.91;100001.78;5029734;28;20049;-64
2021/06/03 04:01:43;;;;;;;13.77;2.78;;;;;;;12.32;47.68;100006.69;5037929;28;20148;-63
2021/06/03 04:04:09;;;;;;;10.10;2.92;;;;;;;12.32;47.97;100007.50;5025968;28;20045;-63
2021/06/03 04:06:39;;;;;;;9.70;2.65;;;;;;;12.40;48.10;100010.75;5040497;28;20052;-64
2021/06/03 04:09:06;;;;;;;13.48;2.53;;;;;;;12.38;47.44;100008.28;5027336;28;20122;-63
2021/06/03 04:11:35;;;;;;;12.75;2.97;;;;;;;12.40;46.94;100008.03;5020390;28;20053;-62
2021/06/03 04:14:01;;;;;;;;;;;;;;;12.49;46.83;100014.56;5027630;28;20118;-61
2021/06/03 04:16:27;;;;;;;16.08;3.03;;;;;;;12.52;46.80;100011.25;5025453;28;19932;-64
2021/06/03 04:18:55;;;;;;;10.05;2.53;;;;;;;12.60;46.95;100016.13;5025928;28;20054;-63
2021/06/03 04:21:22;;;;;;;10.48;2.90;;;;;;;12.62;47.08;100016.66;5028775;28;20176;-63
2021/06/03 04:23:48;;;;;;;8.82;2.40;;;;;;;12.52;46.64;100016.75;5026685;28;20045;-62
2021/06/03 04:26:14;;;;;;;10.50;2.65;;;;;;;12.59;46.56;100014.50;5027979;28;20052;-64
2021/06/03 04:28:42;;;;;;;13.27;2.85;;;;;;;12.58;46.77;100014.78;5029770;28;20474;-65
2021/06/03 04:31:08;;;;;;;10.68;2.40;;;;;;;12.66;46.03;100007.91;5028225;28;20049;-64
2021/06/03 04:33:34;;;;;;;13.13;2.50;;;;;;;12.84;45.67;100017.34;5026246;28;20053;-61
2021/06/03 04:36:00;;;;;;;8.73;2.53;;;;;;;12.86;45.68;100018.72;5026970;28;20501;-62
2021/06/03 04:38:27;;;;;;;10.77;2.47;;;;;;;12.85;46.38;100028.06;5027543;28;20073;-64
2021/06/03 04:40:53;;;;;;;16.48;2.60;;;;;;;13.03;46.41;100029.31;5028931;28;20049;-62
2021/06/03 04:43:19;;;;;;;12.98;2.60;;;;;;;13.09;46.29;100023.78;5028186;28;20148;-63
2021/06/03 04:45:48;;;;;;;13.88;3.75;;;;;;;13.17;46.01;100020.41;5029308;28;20056;-62
2021/06/03 04:48:14;;;;;;;10.23;2.90;;;;;;;13.23;46.50;100015.69;5025002;28;20430;-65
2021/06/03 04:50:41;;;;;;;10.68;2.72;;;;;;;13.22;46.39;100014.06;5028744;28;20059;-61
2021/06/03 04:53:09;;;;;;;11.27;3.47;;;;;;;13.28;45.57;100024.72;5025366;28;20049;-60
2021/06/03 04:55:35;;;;;;;11.18;3.00;;;;;;;13.23;45.28;100018.44;5028110;28;20050;-61
2021/06/03 04:58:03;;;;;;;15.07;3.65;;;;;;;13.30;45.44;100030.75;5024882;28;20053;-62
2021/06/03 05:00:31;;;;;;;9.98;3.20;;;;;;;13.24;45.40;100025.56;5025392;28;20048;-62
2021/06/03 05:02:59;;;;;;;10.73;2.90;;;;;;;13.32;46.08;100023.03;5027616;28;20072;-60
2021/06/03 05:05:26;;;;;;;12.77;2.92;;;;;;;13.40;46.57;100009.81;5026879;28;20054;-63
2021/06/03 05:07:55;;;;;;;16.95;2.90;;;;;;;13.52;45.74;100010.28;5024959;28;20041;-61
2021/06/03 05:10:22;;;;;;;13.60;3.13;;;;;;;13.52;45.62;100018.50;5025845;28;20107;-62
2021/06/03 05:12:48;;;;;;;15.00;3.08;;;;;;;13.69;45.60;100009.81;5027264;28;20455;-61
2021/06/03 05:15:18;;;;;;;12.63;3.30;;;;;;;13.77;45.05;100011.09;5028276;28;20041;-62
2021/06/03 05:17:44;;;;;;;10.93;3.30;;;;;;;13.75;45.46;99996.84;5017813;28;20041;-61
2021/06/03 05:20:14;;;;;;;17.83;3.08;;;;;;;13.81;45.17;100003.09;5027429;28;20043;-62
2021/06/03 05:22:42;;;;;;;12.70;2.97;;;;;;;13.90;44.39;100004.13;5035621;28;20052;-60
2021/06/03 05:25:10;;;;;;;10.70;2.70;;;;;;;13.95;44.17;100009.53;5024839;28;20656;-62
2021/06/03 05:27:36;;;;;;;12.50;2.80;;;;;;;14.11;43.53;100001.91;5024729;28;20320;-63
2021/06/03 05:30:03;;;;;;;10.05;2.67;;;;;;;14.25;43.69;100006.69;5027183;28;20144;-65
2021/06/03 05:32:30;;;;;;;10.23;2.58;;;;;;;14.30;43.41;100001.97;5026536;28;20055;-65
2021/06/03 05:34:56;;;;;;;10.43;2.60;;;;;;;14.37;42.89;99993.34;5027524;28;20543;-66
2021/06/03 05:37:24;;;;;;;11.45;2.35;;;;;;;14.33;41.39;100006.06;5025465;28;20045;-63
2021/06/03 05:39:50;;;;;;;10.63;2.40;;;;;;;14.29;41.29;100010.53;5043252;28;20037;-66
2021/06/03 05:42:17;;;;;;;11.98;2.55;;;;;;;14.07;41.36;99991.81;5027514;28;20049;-65
2021/06/03 05:44:43;;;;;;;10.90;2.78;;;;;;;14.25;41.47;100013.03;5026020;28;20056;-67
2021/06/03 05:47:09;;;;;;;8.32;2.38;;;;;;;14.39;41.35;100018.63;5026840;28;20049;-67
2021/06/03 05:49:35;;;;;;;14.77;3.10;;;;;;;14.50;40.44;100013.00;5029050;28;20045;-67
2021/06/03 05:52:02;;;;;;;6.43;1.90;;;;;;;14.52;39.32;100010.75;5026527;28;20127;-66
2021/06/03 05:54:31;;;;;;;9.70;2.00;;;;;;;14.55;38.96;100011.00;5026335;28;20064;-66
2021/06/03 05:56:57;;;;;;;11.90;2.30;;;;;;;14.62;37.87;100005.13;5025998;28;20530;-62
2021/06/03 05:59:24;;;;;;;7.88;2.22;;;;;;;14.65;37.38;100011.94;5026988;28;20091;-62
2021/06/03 06:01:51;;;;;;;11.32;1.88;;;;;;;14.58;37.84;100007.66;5027168;28;20053;-64
2021/06/03 06:06:46;;;;;;;11.02;2.20;;;;;;;14.84;37.78;100021.06;5028046;28;20060;-63
2021/06/03 06:09:12;;;;;;;9.80;2.20;;;;;;;14.95;37.58;100023.66;5028198;28;20080;-63
2021/06/03 06:11:39;;;;;;;8.75;2.35;;;;;;;15.02;36.83;100029.63;5027342;28;20128;-62
2021/06/03 06:14:06;;;;;;;;;;;;;;;15.13;37.12;100031.06;5025389;28;20493;-62
2021/06/03 06:16:32;;;;;;;8.73;2.25;;;;;;;15.20;37.01;100018.88;5029870;28;19960;-63
2021/06/03 06:18:59;;;;;;;13.27;2.22;;;;;;;15.13;36.77;100017.31;5030106;28;20045;-63
2021/06/03 06:21:25;;;;;;;17.17;2.60;;;;;;;15.17;37.57;100028.53;5027710;28;20072;-66
2021/06/03 06:23:52;;;;;;;9.27;2.85;;;;;;;15.14;37.08;100035.50;5027705;28;20049;-65
2021/06/03 06:26:19;;;;;;;7.03;2.05;;;;;;;15.18;35.78;100024.66;5029042;28;20084;-65
2021/06/03 06:28:47;;;;;;;8.93;2.13;;;;;;;15.32;35.67;100014.50;5025851;28;20049;-65
2021/06/03 06:31:14;;;;;;;12.82;2.35;;;;;;;15.36;35.01;100011.16;5024938;28;20304;-64
2021/06/03 06:33:41;;;;;;;13.05;2.50;;;;;;;15.23;34.68;100013.59;5028578;28;20525;-67
2021/06/03 06:36:08;;;;;;;11.05;2.05;;;;;;;15.31;35.15;100020.34;5028681;28;20111;-64
2021/06/03 06:38:34;;;;;;;12.88;1.88;;;;;;;15.36;34.32;100022.16;5028545;28;20081;-66
2021/06/03 06:41:00;;;;;;;8.87;2.00;;;;;;;15.39;33.98;100016.88;5026903;28;20506;-66
2021/06/03 06:43:27;;;;;;;7.75;1.85;;;;;;;15.34;33.95;100014.22;5027944;28;20269;-66
2021/06/03 06:45:55;;;;;;;12.40;1.92;;;;;;;15.42;33.76;100021.78;5026315;28;20533;-68
2021/06/03 06:48:22;;;;;;;15.13;2.47;;;;;;;15.50;33.24;100039.56;5026253;28;20050;-65
2021/06/03 06:50:49;;;;;;;14.88;2.05;;;;;;;15.41;32.90;100036.69;5027470;28;20049;-64
2021/06/03 06:53:16;;;;;;;11.93;2.17;;;;;;;15.35;32.76;100023.28;5021066;28;20747;-64
2021/06/03 06:55:43;;;;;;;14.80;2.20;;;;;;;15.38;33.34;100022.72;5018523;28;20529;-65
2021/06/03 06:58:09;;;;;;;12.45;2.42;;;;;;;15.27;33.17;100022.88;5024586;28;20715;-65
2021/06/03 07:00:37;;;;;;;8.30;1.97;;;;;;;15.25;32.17;100040.81;5028239;28;20433;-65
2021/06/03 07:03:09;;;;;;;13.30;2.08;;;;;;;15.42;32.31;100046.59;5028397;28;20052;-67
2021/06/03 07:05:37;;;;;;;16.02;2.25;;;;;;;15.50;32.46;100022.22;5027831;28;20134;-66
2021/06/03 07:08:03;;;;;;;9.45;2.50;;;;;;;15.54;32.12;100032.34;5028300;28;20145;-65
2021/06/03 07:10:30;;;;;;;14.52;2.30;;;;;;;15.55;31.82;100013.84;5039512;28;20054;-66
2021/06/03 07:12:56;;;;;;;13.13;2.13;;;;;;;15.68;31.60;100029.59;5027865;28;20137;-66
2021/06/03 07:15:22;;;;;;;9.82;1.92;;;;;;;15.59;31.69;100045.19;5046418;28;20073;-64
2021/06/03 07:17:49;;;;;;;8.03;2.10;;;;;;;15.53;31.57;100035.41;5031640;28;20057;-66
2021/06/03 07:20:19;;;;;;;10.40;1.90;;;;;;;15.60;31.33;100019.28;5030866;28;20073;-65
2021/06/03 07:22:47;;;;;;;8.95;2.10;;;;;;;15.68;31.65;100037.03;5031624;28;20154;-64
2021/06/03 07:25:15;;;;;;;9.05;1.70;;;;;;;15.70;31.71;100046.66;5038850;28;20547;-62
2021/06/03 07:27:42;;;;;;;11.23;2.10;;;;;;;15.68;31.96;100039.81;5029768;28;20049;-64
2021/06/03 07:30:12;;;;;;;12.80;2.25;;;;;;;15.66;31.59;100023.59;5031365;28;20140;-66
2021/06/03 07:32:39;;;;;;;12.73;1.98;;;;;;;15.79;31.51;100027.47;5042996;28;20057;-67
2021/06/03 07:35:09;;;;;;;6.72;1.90;;;;;;;15.89;31.38;100034.75;5026995;28;20060;-66
2021/06/03 07:37:37;;;;;;;9.05;1.95;;;;;;;15.94;31.25;100026.41;5030952;28;20049;-67
2021/06/03 07:40:06;;;;;;;13.10;2.10;;;;;;;15.91;31.66;100037.22;5032385;28;20387;-68
2021/06/03 07:42:32;;;;;;;16.40;2.22;;;;;;;15.90;31.75;100021.81;5032157;28;20141;-67
2021/06/03 07:44:59;;;;;;;11.43;1.92;;;;;;;15.88;30.62;100030.34;5029185;28;20521;-67
2021/06/03 07:47:25;;;;;;;10.45;2.03;;;;;;;15.94;30.16;100031.94;5030890;28;20391;-65
2021/06/03 07:49:51;;;;;;;8.70;2.22;;;;;;;16.02;31.06;100022.94;5031260;28;20041;-65
2021/06/03 07:52:17;;;;;;;16.38;2.22;;;;;;;16.12;31.26;100023.84;5030358;28;20075;-66
2021/06/03 07:54:45;;;;;;;9.52;1.92;;;;;;;16.13;31.71;100022.72;5029866;28;20520;-65
2021/06/03 07:57:11;;;;;;;15.48;2.30;;;;;;;16.14;31.69;100027.13;5031300;28;20476;-69
2021/06/03 07:59:38;;;;;;;12.05;2.00;;;;;;;16.10;31.06;100023.34;5038582;28;20057;-67
2021/06/03 08:02:04;;;;;;;13.02;2.05;;;;;;;16.12;31.36;100030.19;5026391;28;20524;-66
2021/06/03 08:04:30;;;;;;;10.33;2.20;;;;;;;16.32;31.06;100030.06;5031071;28;20147;-69
2021/06/03 08:06:57;;;;;;;10.20;2.20;;;;;;;16.28;31.30;100027.09;5031108;28;20056;-68
2021/06/03 08:09:24;;;;;;;7.53;1.70;;;;;;;16.36;31.23;100023.63;5043840;28;20099;-68
2021/06/03 08:11:51;;;;;;;5.97;1.90;;;;;;;16.23;31.02;99997.69;5029298;28;20133;-65
2021/06/03 08:14:18;;;;;;;9.65;2.30;;;;;;;16.34;30.72;100027.81;5029889;28;20057;-65
2021/06/03 08:16:45;;;;;;;11.98;2.17;;;;;;;16.57;30.47;100026.78;5029875;28;20037;-67
2021/06/03 08:19:11;;;;;;;19.02;2.25;;;;;;;16.56;30.40;100040.88;5029135;28;20052;-66
2021/06/03 08:21:37;;;;;;;15.27;2.10;;;;;;;16.68;30.21;100043.09;5026541;28;20049;-66
2021/06/03 08:24:04;;;;;;;8.90;1.80;;;;;;;16.60;29.29;100025.31;5029555;28;20494;-66
2021/06/03 08:26:30;;;;;;;8.77;2.30;;;;;;;16.56;29.33;100055.50;5030356;28;20058;-66
2021/06/03 08:28:59;;;;;;;10.55;2.45;;;;;;;16.38;29.82;100031.59;5029680;28;20056;-65
2021/06/03 08:31:26;;;;;;;12.88;2.72;;;;;;;16.36;29.52;100059.50;5029379;28;20512;-67
2021/06/03 08:33:52;;;;;;;7.85;1.90;;;;;;;16.66;29.57;100050.88;5044993;28;20107;-67
2021/06/03 08:36:21;;;;;;;7.13;2.05;;;;;;;16.89;29.33;100046.22;5028815;28;20548;-66
2021/06/03 08:38:48;;;;;;;14.95;2.05;;;;;;;16.89;28.35;100034.38;5029655;28;20132;-67
2021/06/03 08:41:16;;;;;;;15.25;2.05;;;;;;;16.76;28.81;100031.31;5020925;28;20077;-66
2021/06/03 08:43:42;;;;;;;;;;;;;;;16.78;29.43;100034.59;5028537;28;20140;-63
2021/06/03 08:46:10;;;;;;;10.48;2.20;;;;;;;16.64;29.90;100026.34;5029928;28;19928;-62
2021/06/03 08:48:36;;;;;;;12.95;2.67;;;;;;;16.55;29.91;100026.28;5022586;28;20045;-62
2021/06/03 08:51:05;;;;;;;13.00;2.50;;;;;;;16.81;30.33;100019.34;5028360;28;20044;-62
2021/06/03 08:53:31;;;;;;;9.40;2.10;;;;;;;16.85;30.05;100015.63;5031235;28;20130;-61
2021/06/03 08:56:14;;;;;;;6.00;1.90;;;;;;;16.90;29.60;100017.47;5030696;28;20502;-63
2021/06/03 08:58:45;;;;;;;15.38;2.10;;;;;;;16.86;29.74;100003.50;5029054;28;20455;-64
2021/06/03 09:01:13;;;;;;;9.93;2.25;;;;;;;16.86;29.53;100030.28;5026544;28;20045;-62
2021/06/03 09:03:40;;;;;;;13.95;2.55;;;;;;;16.77;29.70;100012.81;5026713;28;20475;-64
2021/06/03 09:06:10;;;;;;;10.23;2.50;;;;;;;16.76;29.52;100009.25;5029309;28;20492;-64
2021/06/03 09:08:38;;;;;;;24.15;2.70;;;;;;;16.78;29.14;100004.22;5029702;28;20076;-63
2021/06/03 09:11:07;;;;;;;16.83;2.47;;;;;;;16.72;29.31;100011.78;5029387;28;20049;-63
2021/06/03 09:13:35;;;;;;;16.92;2.60;;;;;;;16.88;29.65;100014.19;5029787;28;20056;-64
2021/06/03 09:16:14;;;;;;;11.15;2.00;;;;;;;17.06;29.58;100008.84;5029634;28;20056;-62
2021/06/03 09:18:42;;;;;;;12.52;2.10;;;;;;;17.03;29.23;100006.72;5026307;28;20521;-66
2021/06/03 09:21:10;;;;;;;9.75;3.03;;;;;;;17.04;29.52;100003.66;5029892;28;20054;-66
2021/06/03 09:23:36;;;;;;;13.18;2.78;;;;;;;17.02;29.71;99992.09;5027835;28;20049;-66
2021/06/03 09:26:06;;;;;;;12.35;2.58;;;;;;;17.17;29.68;99993.66;5037237;28;20096;-65
2021/06/03 09:28:34;;;;;;;7.72;1.98;;;;;;;16.96;29.54;100005.19;5027868;28;20045;-67
2021/06/03 09:31:14;;;;;;;15.60;2.30;;;;;;;17.14;29.11;99999.81;5027865;28;20161;-68
2021/06/03 09:33:46;;;;;;;7.30;2.00;;;;;;;17.22;29.30;99985.22;5026982;28;20041;-66
2021/06/03 09:36:14;;;;;;;13.02;2.38;;;;;;;17.34;28.72;99970.84;5028330;28;20131;-63
2021/06/03 09:39:23;;;;;;;20.67;2.28;;;;;;;17.32;28.12;99997.16;5027700;28;20049;-66
2021/06/03 09:41:52;;;;;;;20.02;2.50;;;;;;;17.48;28.76;99997.56;4950504;28;20050;-66
2021/06/03 09:44:22;;;;;;;12.02;2.63;;;;;;;17.41;29.36;99987.78;4959257;28;20463;-66
2021/06/03 09:46:51;;;;;;;12.80;2.30;;;;;;;17.67;28.93;99984.34;5000567;28;20430;-64
2021/06/03 09:49:19;;;;;;;14.23;2.22;;;;;;;17.58;28.22;99975.19;5028837;28;20052;-64
2021/06/03 09:51:48;;;;;;;8.27;2.15;;;;;;;17.68;28.48;99993.44;5029845;28;20585;-66
2021/06/03 09:54:19;;;;;;;9.18;1.92;;;;;;;17.74;28.17;99972.84;5030096;28;20041;-65
2021/06/03 09:56:50;;;;;;;11.18;1.95;;;;;;;17.71;27.64;99981.75;5029126;28;20497;-66
2021/06/03 09:59:19;;;;;;;9.13;1.95;;;;;;;17.50;27.18;99967.69;5044781;28;20103;-65
2021/06/03 10:01:55;;;;;;;9.30;1.80;;;;;;;17.61;27.05;99980.06;5026904;28;20513;-64
2021/06/03 10:04:30;;;;;;;15.38;1.95;;;;;;;17.60;26.38;99967.38;5029164;28;20049;-64
2021/06/03 10:07:02;;;;;;;14.23;1.90;;;;;;;17.70;26.20;99969.06;5027227;28;20399;-63
2021/06/03 10:09:36;;;;;;;12.45;2.17;;;;;;;17.67;26.96;99958.66;5028809;28;20499;-64
2021/06/03 10:12:02;;;;;;;9.23;1.98;;;;;;;17.56;27.09;99960.88;5028928;28;20046;-64
2021/06/03 10:14:28;;;;;;;12.38;2.50;;;;;;;17.65;27.60;99964.50;5029471;28;20071;-65
2021/06/03 10:16:56;;;;;;;8.75;2.20;;;;;;;17.76;28.54;99955.91;5027201;28;20140;-66
2021/06/03 10:19:24;;;;;;;13.25;2.88;;;;;;;17.97;28.12;99975.50;5027032;28;20045;-63
2021/06/03 10:22:16;;;;;;;10.07;2.53;;;;;;;17.90;28.47;99959.38;5006752;28;20041;-63
2021/06/03 10:25:04;;;;;;;9.07;2.00;;;;;;;17.91;27.98;99963.78;5028738;28;20045;-64
2021/06/03 10:27:32;;;;;;;18.40;2.03;;;;;;;17.82;28.31;99933.31;5024892;28;20076;-63
2021/06/03 10:30:00;;;;;;;8.75;1.90;;;;;;;17.89;28.25;99940.34;5025794;28;20053;-67
2021/06/03 10:32:30;;;;;;;15.75;2.05;;;;;;;17.97;28.66;99932.06;5026015;28;20537;-66
2021/06/03 10:34:57;;;;;;;14.70;2.38;;;;;;;17.92;28.54;99923.13;5018705;28;20053;-66
2021/06/03 10:37:25;;;;;;;13.50;2.30;;;;;;;17.75;28.84;99933.00;5026270;28;20502;-64
2021/06/03 10:39:52;;;;;;;13.40;2.90;;;;;;;17.92;28.42;99932.22;5028306;28;20053;-64
2021/06/03 10:42:20;;;;;;;11.88;2.58;;;;;;;17.88;28.86;99936.75;5029721;28;20046;-64
2021/06/03 10:44:47;;;;;;;16.95;3.65;;;;;;;17.68;28.86;99940.91;5030293;28;20045;-65
2021/06/03 10:47:14;;;;;;;12.13;2.50;;;;;;;17.61;28.54;99948.88;5031110;28;20597;-66
2021/06/03 10:49:43;;;;;;;9.52;2.20;;;;;;;17.69;28.93;99948.91;5032274;28;20143;-66
2021/06/03 10:52:10;;;;;;;12.23;2.20;;;;;;;17.78;28.51;99935.09;5029645;28;20119;-67
2021/06/03 10:54:42;;;;;;;16.15;2.47;;;;;;;17.91;28.60;99919.53;5031896;28;20045;-65
2021/06/03 10:57:09;;;;;;;12.57;2.30;;;;;;;18.05;28.46;99924.13;5030835;28;20045;-64
2021/06/03 10:59:37;;;;;;;10.63;2.35;;;;;;;18.08;27.64;99940.09;5031411;28;20053;-65
2021/06/03 11:02:04;;;;;;;9.75;2.00;;;;;;;18.14;28.37;99911.16;5031917;28;20049;-66
2021/06/03 11:04:31;;;;;;;;;;;;;;;18.16;28.31;99924.63;5030899;28;20081;-66
2021/06/03 11:06:59;;;;;;;13.20;2.25;;;;;;;18.05;28.07;99905.59;5031880;28;19932;-66
2021/06/03 11:09:27;;;;;;;11.02;2.38;;;;;;;18.27;29.17;99912.13;5032240;28;20049;-66
2021/06/03 11:12:12;;;;;;;11.15;2.10;;;;;;;18.20;29.15;99892.44;5030880;28;20054;-67
2021/06/03 11:15:07;;;;;;;7.60;2.15;;;;;;;18.39;29.43;99898.47;5031855;28;20437;-65
2021/06/03 11:18:05;;;;;;;15.95;2.47;;;;;;;18.31;29.71;99881.88;5030516;28;20410;-67
2021/06/03 11:20:37;;;;;;;16.02;2.60;;;;;;;18.38;29.84;99893.25;4969708;28;20678;-67
2021/06/03 11:23:45;;;;;;;9.70;2.30;;;;;;;18.36;29.76;99906.59;5019189;28;20072;-69
2021/06/03 11:26:41;;;;;;;11.57;2.47;;;;;;;18.20;29.59;99903.50;5030199;28;20053;-68
2021/06/03 11:29:07;;;;;;;11.13;2.00;;;;;;;18.13;30.03;99898.47;5018000;28;20131;-65
2021/06/03 11:31:34;;;;;;;10.05;2.17;;;;;;;18.16;30.29;99899.75;5029326;28;20053;-65
2021/06/03 11:34:08;;;;;;;27.40;2.53;;;;;;;18.34;29.91;99887.56;5031004;28;20045;-68